Time;durP1;ratioP1;P1;durP2;ratioP2;P2;SDS_P1;SDS_P2;PMS_P1;PMS_P2;Temp;Humidity;BMP_temperature;BMP_pressure;BME280_temperature;BME280_humidity;BME280_pressure;Samples;Min_cycle;Max_cycle;Signal;HPM_P1;HPM_P2
2021/04/24 00:01:35;;;;;;;14.40;7.63;;;5.70;99.90;;;;;;5094903;28;20172;-91
2021/04/24 00:04:01;;;;;;;12.00;7.50;;;5.70;99.90;;;;;;5094198;28;20457;-93
2021/04/24 00:06:27;;;;;;;14.27;8.10;;;5.60;99.90;;;;;;5095343;28;20433;-91
2021/04/24 00:08:53;;;;;;;17.67;8.30;;;5.60;99.90;;;;;;5094189;28;20472;-91
2021/04/24 00:11:20;;;;;;;14.83;7.97;;;5.50;99.90;;;;;;5093930;28;20446;-91
2021/04/24 00:13:46;;;;;;;19.47;8.90;;;5.50;99.90;;;;;;5093311;28;20421;-88
2021/04/24 00:16:13;;;;;;;15.43;7.37;;;5.50;99.90;;;;;;5093562;28;20449;-89
2021/04/24 00:18:39;;;;;;;16.90;8.20;;;5.50;99.90;;;;;;5093603;28;20406;-91
2021/04/24 00:21:05;;;;;;;12.53;7.67;;;5.40;99.90;;;;;;5093428;28;20422;-89
2021/04/24 00:23:32;;;;;;;17.10;8.50;;;5.40;99.90;;;;;;5090099;28;20297;-90
2021/04/24 00:25:58;;;;;;;14.57;9.67;;;5.30;99.90;;;;;;5073184;28;20466;-90
2021/04/24 00:28:23;;;;;;;18.53;9.03;;;5.30;99.90;;;;;;5072515;28;20418;-89
2021/04/24 00:30:49;;;;;;;15.17;8.00;;;5.30;99.90;;;;;;5074001;28;20404;-89
2021/04/24 00:33:15;;;;;;;18.00;9.30;;;5.30;99.90;;;;;;5072860;28;20208;-90
2021/04/24 00:35:41;;;;;;;14.07;8.53;;;5.30;99.90;;;;;;5074127;28;20177;-89
2021/04/24 00:38:07;;;;;;;21.43;9.33;;;5.20;99.90;;;;;;5073061;28;20469;-90
2021/04/24 00:40:33;;;;;;;16.80;8.80;;;5.20;99.90;;;;;;5073187;28;20221;-89
2021/04/24 00:42:58;;;;;;;13.97;8.77;;;5.20;99.90;;;;;;5072229;28;20465;-90
2021/04/24 00:45:24;;;;;;;16.17;10.50;;;5.20;99.90;;;;;;5072606;28;20212;-91
2021/04/24 00:47:51;;;;;;;13.03;8.87;;;5.30;99.90;;;;;;5072719;28;20636;-90
2021/04/24 00:50:32;;;;;;;15.90;8.37;;;5.40;99.90;;;;;;5072699;28;20518;-89
2021/04/24 00:52:59;;;;;;;15.97;9.80;;;5.40;99.90;;;;;;5072502;28;20465;-90
2021/04/24 00:55:25;;;;;;;14.43;7.53;;;5.40;99.90;;;;;;5072934;28;20957;-90
2021/04/24 00:57:51;;;;;;;18.30;8.63;;;5.40;99.90;;;;;;5071847;28;20407;-91
2021/04/24 01:00:22;;;;;;;11.60;7.40;;;5.30;99.90;;;;;;5073231;28;20625;-93
2021/04/24 01:02:48;;;;;;;14.00;8.33;;;5.30;99.90;;;;;;5073452;28;20411;-93
2021/04/24 01:05:30;;;;;;;15.73;7.87;;;5.30;99.90;;;;;;5073091;28;20463;-93
2021/04/24 01:07:55;;;;;;;14.93;8.17;;;5.20;99.90;;;;;;5069845;28;20421;-92
2021/04/24 01:10:22;;;;;;;15.60;7.90;;;5.20;99.90;;;;;;5073313;28;20435;-93
2021/04/24 01:12:48;;;;;;;14.60;9.00;;;5.20;99.90;;;;;;5072884;28;20587;-93
2021/04/24 01:15:16;;;;;;;18.37;7.87;;;5.20;99.90;;;;;;5075931;28;20453;-94
2021/04/24 01:17:43;;;;;;;14.20;7.67;;;5.10;99.90;;;;;;5073182;28;20446;-94
2021/04/24 01:20:11;;;;;;;13.37;7.87;;;5.10;99.90;;;;;;5074286;28;20473;-94
2021/04/24 01:22:37;;;;;;;12.70;7.97;;;5.10;99.90;;;;;;5074238;28;20498;-93
2021/04/24 01:25:12;;;;;;;12.73;7.50;;;5.10;99.90;;;;;;5073644;28;20537;-95
2021/04/24 01:27:38;;;;;;;14.30;8.00;;;5.10;99.90;;;;;;5074244;28;20208;-94
2021/04/24 01:30:10;;;;;;;17.90;7.67;;;5.10;99.90;;;;;;5073417;28;20447;-94
2021/04/24 01:32:37;;;;;;;13.07;8.03;;;5.10;99.90;;;;;;5073446;28;20411;-94
2021/04/24 01:35:07;;;;;;;16.77;9.60;;;5.10;99.90;;;;;;5073441;28;20415;-94
2021/04/24 01:37:33;;;;;;;14.87;7.20;;;5.00;99.90;;;;;;5073091;28;20502;-93
2021/04/24 01:39:59;;;;;;;13.60;7.90;;;5.00;99.90;;;;;;5073060;28;21012;-95
2021/04/24 01:42:24;;;;;;;17.63;8.70;;;5.00;99.90;;;;;;5073043;28;20430;-93
2021/04/24 01:44:50;;;;;;;14.57;8.03;;;5.00;99.90;;;;;;5072806;28;20209;-92
2021/04/24 01:47:16;;;;;;;15.53;7.80;;;4.90;99.90;;;;;;5073041;28;20165;-94
2021/04/24 01:49:41;;;;;;;15.30;7.50;;;4.90;99.90;;;;;;5073046;28;20208;-93
2021/04/24 01:52:07;;;;;;;15.73;8.40;;;4.90;99.90;;;;;;5073005;28;20173;-93
2021/04/24 01:54:32;;;;;;;15.27;7.60;;;4.90;99.90;;;;;;5073088;28;20184;-93
2021/04/24 01:56:58;;;;;;;13.67;6.57;;;4.90;99.90;;;;;;5072956;28;20181;-91
2021/04/24 01:59:29;;;;;;;16.80;8.33;;;4.80;99.90;;;;;;5072629;28;20223;-92
2021/04/24 02:01:57;;;;;;;17.97;8.43;;;4.80;99.90;;;;;;5072992;28;20226;-92
2021/04/24 02:04:28;;;;;;;13.37;8.20;;;4.80;99.90;;;;;;5072751;28;20473;-91
2021/04/24 02:06:54;;;;;;;12.80;8.60;;;4.80;99.90;;;;;;5072652;28;20409;-91
2021/04/24 02:09:21;;;;;;;16.97;8.67;;;4.80;99.90;;;;;;5074456;28;20430;-91
2021/04/24 02:12:16;;;;;;;11.50;7.43;;;4.90;99.90;;;;;;5076432;28;20437;-91
2021/04/24 02:14:47;;;;;;;15.33;8.70;;;4.90;99.90;;;;;;5059047;28;20935;-91
2021/04/24 02:17:15;;;;;;;17.20;8.63;;;4.90;99.90;;;;;;5094393;28;20852;-92
2021/04/24 02:19:43;;;;;;;17.83;8.83;;;4.90;99.90;;;;;;5096467;28;20422;-92
2021/04/24 02:22:11;;;;;;;14.63;6.70;;;4.80;99.90;;;;;;5096533;28;20416;-91
2021/04/24 02:24:42;;;;;;;18.53;8.40;;;4.80;99.90;;;;;;5096352;28;20835;-91
2021/04/24 02:27:09;;;;;;;16.73;7.37;;;4.80;99.90;;;;;;5095855;28;20556;-90
2021/04/24 02:29:35;;;;;;;13.90;8.07;;;4.80;99.90;;;;;;5097071;28;20479;-90
2021/04/24 02:32:01;;;;;;;13.80;8.30;;;4.80;99.90;;;;;;5096012;28;20415;-91
2021/04/24 02:34:27;;;;;;;17.67;9.13;;;4.80;99.90;;;;;;5095735;28;20423;-90
2021/04/24 02:36:53;;;;;;;15.83;8.50;;;4.80;99.90;;;;;;5096803;28;20414;-89
2021/04/24 02:39:18;;;;;;;13.93;6.93;;;4.70;99.90;;;;;;5095712;28;20187;-91
2021/04/24 02:41:44;;;;;;;12.97;6.83;;;4.70;99.90;;;;;;5095735;28;20227;-92
2021/04/24 02:44:09;;;;;;;17.90;9.10;;;4.70;99.90;;;;;;5097278;28;20210;-91
2021/04/24 02:46:35;;;;;;;16.20;8.13;;;4.70;99.90;;;;;;5095792;28;20200;-90
2021/04/24 02:49:00;;;;;;;20.83;8.17;;;4.70;99.90;;;;;;5096251;28;20229;-90
2021/04/24 02:51:26;;;;;;;15.07;8.73;;;4.60;99.90;;;;;;5095636;28;20171;-91
2021/04/24 02:53:52;;;;;;;14.77;7.23;;;4.60;99.90;;;;;;5095594;28;20168;-92
2021/04/24 02:56:17;;;;;;;14.77;8.37;;;4.60;99.90;;;;;;5096017;28;20594;-92
2021/04/24 02:58:43;;;;;;;14.13;7.87;;;4.50;99.90;;;;;;5095415;28;20441;-91
2021/04/24 03:01:09;;;;;;;15.20;8.57;;;4.50;99.90;;;;;;5095564;28;20172;-91
2021/04/24 03:03:35;;;;;;;15.80;7.13;;;4.50;99.90;;;;;;5095752;28;20520;-92
2021/04/24 03:06:00;;;;;;;21.63;8.27;;;4.50;99.90;;;;;;5095785;28;20648;-91
2021/04/24 03:08:26;;;;;;;16.20;6.90;;;4.40;99.90;;;;;;5095700;28;20414;-91
2021/04/24 03:10:52;;;;;;;12.93;6.70;;;4.40;99.90;;;;;;5095668;28;20635;-91
2021/04/24 03:13:17;;;;;;;11.80;7.37;;;4.40;99.90;;;;;;5095841;28;20180;-92
2021/04/24 03:15:43;;;;;;;13.37;6.83;;;4.40;99.90;;;;;;5095524;28;20203;-91
2021/04/24 03:18:09;;;;;;;17.37;7.73;;;4.40;99.90;;;;;;5095283;28;20179;-90
2021/04/24 03:20:34;;;;;;;11.93;6.97;;;4.40;99.90;;;;;;5094010;28;20173;-91
2021/04/24 03:23:00;;;;;;;13.87;7.13;;;4.40;99.90;;;;;;5094968;28;20188;-92
2021/04/24 03:25:26;;;;;;;13.87;7.70;;;4.30;99.90;;;;;;5094928;28;20175;-90
2021/04/24 03:27:52;;;;;;;13.73;6.20;;;4.30;99.90;;;;;;5094695;28;20168;-90
2021/04/24 03:30:18;;;;;;;10.33;6.50;;;4.30;99.90;;;;;;5094853;28;20789;-90
2021/04/24 03:32:43;;;;;;;16.60;7.47;;;4.30;99.90;;;;;;5095151;28;20176;-91
2021/04/24 03:35:10;;;;;;;13.60;8.57;;;4.30;99.90;;;;;;5094922;28;20438;-90
2021/04/24 03:37:36;;;;;;;14.43;6.77;;;4.30;99.90;;;;;;5095746;28;20712;-89
2021/04/24 03:40:03;;;;;;;10.30;6.30;;;4.30;99.90;;;;;;5094211;28;20515;-89
2021/04/24 03:42:29;;;;;;;18.17;9.17;;;4.30;99.90;;;;;;5093993;28;20410;-89
2021/04/24 03:44:55;;;;;;;10.37;6.03;;;4.30;99.90;;;;;;5093188;28;20472;-90
2021/04/24 03:47:21;;;;;;;11.33;6.00;;;4.50;99.90;;;;;;5094331;28;20253;-89
2021/04/24 03:49:46;;;;;;;10.70;5.93;;;4.60;99.90;;;;;;5094178;28;20218;-89
2021/04/24 03:52:12;;;;;;;18.10;6.00;;;4.70;99.90;;;;;;5094176;28;20410;-90
2021/04/24 03:54:37;;;;;;;12.43;7.00;;;4.80;99.90;;;;;;5094145;28;20271;-90
2021/04/24 03:57:03;;;;;;;10.13;6.50;;;4.90;99.90;;;;;;5094101;28;20529;-89
2021/04/24 03:59:29;;;;;;;11.50;6.30;;;5.00;99.90;;;;;;5093761;28;20179;-89
2021/04/24 04:01:54;;;;;;;15.50;6.77;;;5.10;99.90;;;;;;5093991;28;20237;-90
2021/04/24 04:04:20;;;;;;;13.30;6.50;;;5.10;99.90;;;;;;5093662;28;20203;-89
2021/04/24 04:06:46;;;;;;;11.73;5.37;;;5.20;99.90;;;;;;5093804;28;20199;-89
2021/04/24 04:09:11;;;;;;;10.30;6.07;;;5.20;99.90;;;;;;5093883;28;20603;-89
2021/04/24 04:11:37;;;;;;;9.70;6.33;;;5.10;99.90;;;;;;5093814;28;20187;-89
2021/04/24 04:14:03;;;;;;;9.17;5.97;;;5.10;99.90;;;;;;5093479;28;20263;-87
2021/04/24 04:16:28;;;;;;;11.47;7.17;;;5.10;99.90;;;;;;5094779;28;20172;-89
2021/04/24 04:18:54;;;;;;;12.43;6.20;;;5.10;99.90;;;;;;5094099;28;20176;-89
2021/04/24 04:21:20;;;;;;;14.20;6.90;;;5.10;99.90;;;;;;5095007;28;20179;-89
2021/04/24 04:23:45;;;;;;;18.60;6.77;;;5.20;99.90;;;;;;5095325;28;20228;-91
2021/04/24 04:26:11;;;;;;;10.70;6.73;;;5.20;99.90;;;;;;5094184;28;20452;-91
2021/04/24 04:28:37;;;;;;;13.03;7.30;;;5.30;99.90;;;;;;5094073;28;20182;-92
2021/04/24 04:31:03;;;;;;;12.10;7.47;;;5.40;99.90;;;;;;5095315;28;20203;-92
2021/04/24 04:33:29;;;;;;;9.70;6.20;;;5.50;99.90;;;;;;5094762;28;20649;-92
2021/04/24 04:35:55;;;;;;;12.10;6.13;;;5.70;99.90;;;;;;5094164;28;20217;-91
2021/04/24 04:38:21;;;;;;;11.43;5.23;;;5.80;99.90;;;;;;5094080;28;20422;-92
2021/04/24 04:40:47;;;;;;;9.77;6.23;;;5.90;99.90;;;;;;5093811;28;20219;-92
2021/04/24 04:43:13;;;;;;;11.60;5.63;;;6.00;99.90;;;;;;5093561;28;20471;-92
2021/04/24 04:45:39;;;;;;;11.00;5.90;;;6.10;99.90;;;;;;5094997;28;20970;-92
2021/04/24 04:48:05;;;;;;;13.83;5.33;;;6.30;99.90;;;;;;5093746;28;20410;-92
2021/04/24 04:50:33;;;;;;;9.87;5.20;;;6.40;99.90;;;;;;5093755;28;20172;-91
2021/04/24 04:52:59;;;;;;;10.77;5.80;;;6.60;99.90;;;;;;5093849;28;20925;-91
2021/04/24 04:55:26;;;;;;;9.83;4.97;;;6.70;99.90;;;;;;5093852;28;20462;-91
2021/04/24 04:57:51;;;;;;;9.03;4.60;;;6.90;99.90;;;;;;5093293;28;20418;-90
2021/04/24 05:00:19;;;;;;;9.43;4.80;;;6.90;99.90;;;;;;5093297;28;20415;-90
2021/04/24 05:02:45;;;;;;;9.13;5.57;;;6.90;99.90;;;;;;5093413;28;20176;-91
2021/04/24 05:05:12;;;;;;;12.50;4.80;;;6.90;99.90;;;;;;5092527;28;20557;-88
2021/04/24 05:07:38;;;;;;;7.90;5.70;;;6.90;99.90;;;;;;5092562;28;20569;-90
2021/04/24 05:10:05;;;;;;;8.80;5.40;;;7.00;99.90;;;;;;5093885;28;20415;-89
2021/04/24 05:12:30;;;;;;;13.80;5.40;;;7.10;99.90;;;;;;5092266;28;20176;-89
2021/04/24 05:14:56;;;;;;;6.43;4.03;;;7.20;99.90;;;;;;5093771;28;20429;-89
2021/04/24 05:17:22;;;;;;;9.67;5.00;;;7.30;99.90;;;;;;5093910;28;20661;-90
2021/04/24 05:19:48;;;;;;;12.07;5.70;;;;;;;;;;5094376;28;20183;-91
2021/04/24 05:22:14;;;;;;;11.70;5.70;;;7.30;99.90;;;;;;5093337;28;20175;-93
2021/04/24 05:24:39;;;;;;;12.33;6.20;;;7.40;99.90;;;;;;5094325;28;20830;-90
2021/04/24 05:27:06;;;;;;;8.43;6.27;;;7.30;99.90;;;;;;5092881;28;20172;-90
2021/04/24 05:29:31;;;;;;;14.37;7.03;;;7.20;99.90;;;;;;5094188;28;20251;-90
2021/04/24 05:31:57;;;;;;;12.37;5.30;;;7.20;99.90;;;;;;5094141;28;20446;-91
2021/04/24 05:34:22;;;;;;;19.67;6.67;;;7.20;99.90;;;;;;5094003;28;20187;-91
2021/04/24 05:36:48;;;;;;;12.80;4.07;;;7.40;99.90;;;;;;5093958;28;20666;-91
2021/04/24 05:39:14;;;;;;;14.33;6.07;;;7.60;99.90;;;;;;5093519;28;20254;-93
2021/04/24 05:41:39;;;;;;;11.47;5.27;;;8.00;98.10;;;;;;5094289;28;20222;-92
2021/04/24 05:44:07;;;;;;;16.53;5.90;;;8.40;87.60;;;;;;5094400;28;20659;-92
2021/04/24 05:46:32;;;;;;;7.70;5.30;;;8.90;52.90;;;;;;5097027;28;20176;-92
2021/04/24 05:48:58;;;;;;;7.27;4.10;;;9.30;17.10;;;;;;5096830;28;20544;-92
2021/04/24 05:51:24;;;;;;;12.87;5.07;;;;;;;;;;5096937;28;20172;-91
2021/04/24 05:53:51;;;;;;;8.90;3.97;;;10.50;1.00;;;;;;5097319;28;20213;-92
2021/04/24 05:56:19;;;;;;;12.43;4.77;;;10.80;1.00;;;;;;5098121;28;20402;-92
2021/04/24 05:58:46;;;;;;;9.20;4.47;;;11.40;1.00;;;;;;5097713;28;20456;-92
2021/04/24 06:01:11;;;;;;;12.07;4.63;;;10.60;1.00;;;;;;5096977;28;20431;-94
2021/04/24 06:03:37;;;;;;;12.63;4.57;;;11.10;1.00;;;;;;5097498;28;20469;-94
2021/04/24 06:06:03;;;;;;;5.73;2.67;;;11.00;1.00;;;;;;5098076;28;20199;-94
2021/04/24 06:08:29;;;;;;;16.33;4.73;;;10.90;1.00;;;;;;5099141;28;20172;-94
2021/04/24 06:10:54;;;;;;;8.67;4.27;;;10.90;1.00;;;;;;5101551;28;20432;-93
2021/04/24 06:13:20;;;;;;;9.00;3.10;;;;;;;;;;5101323;28;20181;-92
2021/04/24 06:15:47;;;;;;;8.40;4.03;;;;;;;;;;5102050;28;20176;-93
2021/04/24 06:18:14;;;;;;;8.33;3.27;;;;;;;;;;5098083;28;20429;-91
2021/04/24 06:20:40;;;;;;;10.07;3.67;;;;;;;;;;5096968;28;20427;-92
2021/04/24 06:23:06;;;;;;;9.77;3.77;;;11.90;99.90;;;;;;5096380;28;20411;-92
2021/04/24 06:25:32;;;;;;;8.27;3.97;;;12.00;99.90;;;;;;5096804;28;20446;-92
2021/04/24 06:27:57;;;;;;;9.67;2.93;;;12.20;99.90;;;;;;5096536;28;20193;-92
2021/04/24 06:30:23;;;;;;;16.47;3.63;;;;;;;;;;5096594;28;20426;-94
2021/04/24 06:32:51;;;;;;;8.33;3.23;;;12.40;1.00;;;;;;5097733;28;20585;-94
2021/04/24 06:35:18;;;;;;;9.80;2.87;;;12.60;1.00;;;;;;5097357;28;20464;-91
2021/04/24 06:37:44;;;;;;;11.13;3.00;;;12.80;1.00;;;;;;5096450;28;20834;-91
2021/04/24 06:40:11;;;;;;;10.03;2.80;;;13.10;1.00;;;;;;5095513;28;20461;-92
2021/04/24 06:42:37;;;;;;;9.43;3.00;;;13.40;99.90;;;;;;5095646;28;20187;-92
2021/04/24 06:45:06;;;;;;;13.50;3.97;;;13.80;1.00;;;;;;5095613;28;20964;-92
2021/04/24 06:47:32;;;;;;;8.23;2.30;;;;;;;;;;5095020;28;20420;-94
2021/04/24 06:49:58;;;;;;;7.90;2.23;;;15.10;1.00;;;;;;5095128;28;20416;-91
2021/04/24 06:52:23;;;;;;;11.47;3.37;;;16.00;1.00;;;;;;5091710;28;20449;-90
2021/04/24 06:54:49;;;;;;;7.37;3.20;;;;;;;;;;5075690;28;20170;-90
2021/04/24 06:57:15;;;;;;;8.83;2.10;;;;;;;;;;5075445;28;20175;-90
2021/04/24 06:59:43;;;;;;;8.83;2.30;;;;;;;;;;5094202;28;20472;-90
2021/04/24 07:02:10;;;;;;;9.60;2.13;;;;;;;;;;5084902;28;20454;-85
2021/04/24 07:04:36;;;;;;;9.10;2.17;;;;;;;;;;5075493;28;20471;-89
2021/04/24 07:07:03;;;;;;;6.00;1.93;;;;;;;;;;5074320;28;20897;-87
2021/04/24 07:09:28;;;;;;;8.33;1.77;;;;;;;;;;5074207;28;20416;-90
2021/04/24 07:11:54;;;;;;;7.33;2.20;;;23.50;1.00;;;;;;5074286;28;20498;-89
2021/04/24 07:14:20;;;;;;;10.90;2.67;;;23.40;1.00;;;;;;5075817;28;20405;-88
2021/04/24 07:16:45;;;;;;;10.20;2.50;;;24.10;1.00;;;;;;5094416;28;20180;-87
2021/04/24 07:19:11;;;;;;;6.47;1.57;;;24.70;1.00;;;;;;5095733;28;20232;-88
2021/04/24 07:21:37;;;;;;;7.50;1.70;;;24.80;1.00;;;;;;5094488;28;20176;-88
2021/04/24 07:24:03;;;;;;;5.77;1.80;;;25.50;1.00;;;;;;5095824;28;20454;-89
2021/04/24 07:26:29;;;;;;;9.47;2.33;;;26.00;1.00;;;;;;5092614;28;20536;-88
2021/04/24 07:28:54;;;;;;;6.30;2.30;;;25.80;1.00;;;;;;5087172;28;20318;-90
2021/04/24 07:31:20;;;;;;;8.07;1.70;;;26.10;1.00;;;;;;5092283;28;20609;-92
2021/04/24 07:33:46;;;;;;;6.57;2.10;;;26.40;1.00;;;;;;5094455;28;20178;-92
2021/04/24 07:36:12;;;;;;;10.53;3.10;;;26.90;1.00;;;;;;5090960;28;20454;-91
2021/04/24 07:38:38;;;;;;;5.73;2.23;;;27.30;1.00;;;;;;5094412;28;20606;-92
2021/04/24 07:41:04;;;;;;;7.03;2.17;;;27.50;1.00;;;;;;5094942;28;20317;-92
2021/04/24 07:43:33;;;;;;;9.10;1.80;;;28.20;1.00;;;;;;5094657;28;20260;-92
2021/04/24 07:45:59;;;;;;;5.03;2.50;;;28.30;1.00;;;;;;5102353;28;20443;-95
2021/04/24 07:48:25;;;;;;;10.00;2.80;;;27.90;1.00;;;;;;5117787;28;20966;-94
2021/04/24 07:50:50;;;;;;;5.60;1.80;;;28.20;1.00;;;;;;5117567;28;20420;-92
2021/04/24 07:53:17;;;;;;;6.80;2.30;;;28.70;1.00;;;;;;5121697;28;20183;-95
2021/04/24 07:55:43;;;;;;;6.60;2.03;;;28.80;1.00;;;;;;5128408;28;20428;-94
2021/04/24 07:58:09;;;;;;;3.43;2.30;;;28.60;1.00;;;;;;5125482;28;20419;-95
2021/04/24 08:00:36;;;;;;;4.33;1.70;;;28.70;1.00;;;;;;5120802;28;20173;-87
2021/04/24 08:03:02;;;;;;;4.33;2.00;;;28.60;1.00;;;;;;5115122;28;21121;-91
2021/04/24 08:05:28;;;;;;;4.57;1.57;;;28.40;1.00;;;;;;5094885;28;20424;-89
2021/04/24 08:07:54;;;;;;;3.13;1.43;;;29.20;1.00;;;;;;5094144;28;20412;-90
2021/04/24 08:10:19;;;;;;;6.80;2.30;;;29.30;1.00;;;;;;5109510;28;20299;-91
2021/04/24 08:12:46;;;;;;;6.30;2.10;;;29.40;1.00;;;;;;5094360;28;20228;-89
2021/04/24 08:15:13;;;;;;;6.57;2.47;;;30.20;1.00;;;;;;5093831;28;20293;-90
2021/04/24 08:17:39;;;;;;;8.03;2.80;;;30.90;1.00;;;;;;5093675;28;20414;-89
2021/04/24 08:20:14;;;;;;;3.30;1.90;;;31.90;1.00;;;;;;5094091;28;20422;-89
2021/04/24 08:22:40;;;;;;;8.67;2.53;;;32.00;1.00;;;;;;5094921;28;20285;-88
2021/04/24 08:25:07;;;;;;;5.43;2.20;;;32.40;1.00;;;;;;5092669;28;20513;-90
2021/04/24 08:27:32;;;;;;;9.03;2.30;;;31.30;1.00;;;;;;5093333;28;20897;-90
2021/04/24 08:29:58;;;;;;;5.07;2.60;;;31.00;1.00;;;;;;5077457;28;20467;-85
2021/04/24 08:32:24;;;;;;;5.30;2.40;;;30.60;99.90;;;;;;5072870;28;20208;-84
2021/04/24 08:34:49;;;;;;;5.40;2.03;;;31.30;99.90;;;;;;5073217;28;20201;-86
2021/04/24 08:37:15;;;;;;;5.83;1.70;;;31.30;99.90;;;;;;5072379;28;20168;-89
2021/04/24 08:39:41;;;;;;;6.97;2.70;;;30.60;1.00;;;;;;5073528;28;20181;-88
2021/04/24 08:42:07;;;;;;;9.50;2.77;;;;;;;;;;5073005;28;20188;-89
2021/04/24 08:44:33;;;;;;;5.50;2.17;;;;;;;;;;5073623;28;20418;-89
2021/04/24 08:47:01;;;;;;;4.23;2.50;;;;;;;;;;5073512;28;20860;-89
2021/04/24 08:49:27;;;;;;;5.77;3.77;;;;;;;;;;5073913;28;20421;-88
2021/04/24 08:51:54;;;;;;;5.80;2.07;;;;;;;;;;5073018;28;20497;-88
2021/04/24 08:54:21;;;;;;;6.73;2.60;;;;;;;;;;5072612;28;20574;-92
2021/04/24 08:56:47;;;;;;;4.37;2.13;;;;;;;;;;5089819;28;20494;-86
2021/04/24 08:59:14;;;;;;;5.50;2.07;;;;;;;;;;5092776;28;20894;-88
2021/04/24 09:01:40;;;;;;;4.63;2.53;;;27.10;1.00;;;;;;5089209;28;20432;-86
2021/04/24 09:04:06;;;;;;;5.83;2.87;;;27.90;99.90;;;;;;5092618;28;20794;-86
2021/04/24 09:06:35;;;;;;;5.03;1.93;;;;;;;;;;5091416;28;20428;-85
2021/04/24 09:09:05;;;;;;;4.40;1.77;;;;;;;;;;5092903;28;20418;-86
2021/04/24 09:11:38;;;;;;;6.13;1.70;;;;;;;;;;5090818;28;21015;-86
2021/04/24 09:14:07;;;;;;;4.30;1.90;;;26.30;1.00;;;;;;5092639;28;20466;-85
2021/04/24 09:16:34;;;;;;;3.30;1.83;;;;;;;;;;5091398;28;20427;-86
2021/04/24 09:19:00;;;;;;;6.50;1.77;;;27.00;1.00;;;;;;5091468;28;20412;-85
2021/04/24 09:21:28;;;;;;;6.07;2.03;;;28.20;1.00;;;;;;5078147;28;20440;-85
2021/04/24 09:23:54;;;;;;;3.83;1.50;;;30.10;1.00;;;;;;5071125;28;20419;-85
2021/04/24 09:26:22;;;;;;;5.60;1.63;;;30.30;99.90;;;;;;5072156;28;20425;-85
2021/04/24 09:28:57;;;;;;;3.33;1.40;;;28.40;99.90;;;;;;5072685;28;20925;-85
2021/04/24 09:31:25;;;;;;;3.23;1.80;;;27.90;99.90;;;;;;5072269;28;20495;-85
2021/04/24 09:33:56;;;;;;;4.13;1.40;;;27.20;99.90;;;;;;5072334;28;20473;-86
2021/04/24 09:36:23;;;;;;;4.70;1.90;;;;;;;;;;5080794;28;20777;-85
2021/04/24 09:38:52;;;;;;;5.53;1.57;;;28.70;99.90;;;;;;5091199;28;20430;-85
2021/04/24 09:41:27;;;;;;;3.60;1.10;;;29.00;99.90;;;;;;5091697;28;20490;-85
2021/04/24 09:43:58;;;;;;;5.73;1.27;;;28.90;99.90;;;;;;5104826;28;20426;-88
2021/04/24 09:46:35;;;;;;;3.67;1.07;;;27.40;99.90;;;;;;5113220;28;20465;-88
2021/04/24 09:49:09;;;;;;;2.80;1.00;;;26.00;99.90;;;;;;5112895;28;20412;-87
2021/04/24 09:51:39;;;;;;;4.50;2.37;;;;;;;;;;5105694;28;20426;-88
2021/04/24 09:54:05;;;;;;;3.50;1.73;;;26.30;1.00;;;;;;5093163;28;20490;-90
2021/04/24 09:56:31;;;;;;;3.63;1.30;;;28.90;99.90;;;;;;5091530;28;20421;-88
2021/04/24 09:59:10;;;;;;;9.90;1.90;;;30.90;99.90;;;;;;5092264;28;20419;-88
2021/04/24 10:01:38;;;;;;;2.97;1.17;;;32.00;99.90;;;;;;5093218;28;20262;-89
2021/04/24 10:04:10;;;;;;;3.33;0.90;;;32.90;42.50;;;;;;5091638;28;21029;-89
2021/04/24 10:06:39;;;;;;;3.23;1.23;;;31.80;23.40;;;;;;5093001;28;20406;-88
2021/04/24 10:09:14;;;;;;;1.97;0.60;;;;;;;;;;5091366;28;20953;-87
2021/04/24 10:11:41;;;;;;;3.93;1.10;;;;;;;;;;5090022;28;20996;-87
2021/04/24 10:14:07;;;;;;;2.53;1.77;;;;;;;;;;5091533;28;20453;-87
2021/04/24 10:16:44;;;;;;;2.87;1.57;;;;;;;;;;5092322;28;20925;-89
2021/04/24 10:19:14;;;;;;;4.63;1.80;;;;;;;;;;5090399;28;20424;-88
2021/04/24 10:21:42;;;;;;;4.87;1.87;;;31.80;1.00;;;;;;5090108;28;20433;-88
2021/04/24 10:24:09;;;;;;;3.27;1.00;;;31.10;1.00;;;;;;5088347;28;21387;-86
2021/04/24 10:26:36;;;;;;;3.67;1.20;;;30.10;1.00;;;;;;5089773;28;20462;-88
2021/04/24 10:29:02;;;;;;;2.60;1.80;;;29.00;1.00;;;;;;5091869;28;20414;-88
2021/04/24 10:31:29;;;;;;;1.87;0.50;;;;;;;;;;5094918;28;20428;-88
2021/04/24 10:34:01;;;;;;;2.60;1.10;;;30.00;1.00;;;;;;5095218;28;20468;-88
2021/04/24 10:36:28;;;;;;;4.60;1.30;;;31.90;1.00;;;;;;5094803;28;20930;-89
2021/04/24 10:38:55;;;;;;;3.10;1.10;;;33.50;1.00;;;;;;5092105;28;20554;-89
2021/04/24 10:41:32;;;;;;;2.17;1.20;;;;;;;;;;5093980;28;20466;-89
2021/04/24 10:44:07;;;;;;;2.93;1.37;;;34.70;1.00;;;;;;5092482;28;20901;-88
2021/04/24 10:46:36;;;;;;;4.40;1.43;;;34.80;1.00;;;;;;5095765;28;20908;-89
2021/04/24 10:49:17;;;;;;;3.50;1.30;;;32.90;1.00;;;;;;5096174;28;20442;-88
2021/04/24 10:51:58;;;;;;;5.77;1.47;;;30.00;1.00;;;;;;5095863;28;20422;-86
2021/04/24 10:54:26;;;;;;;2.10;1.20;;;27.40;1.00;;;;;;5095616;28;20516;-85
2021/04/24 10:56:54;;;;;;;6.17;2.97;;;;;;;;;;5095420;28;20911;-85
2021/04/24 10:59:27;;;;;;;4.53;2.00;;;26.90;1.00;;;;;;5093520;28;20420;-85
2021/04/24 11:02:09;;;;;;;4.83;1.33;;;29.20;1.00;;;;;;5095577;28;20422;-85
2021/04/24 11:04:38;;;;;;;3.93;1.53;;;32.50;1.00;;;;;;5095553;28;20430;-85
2021/04/24 11:07:16;;;;;;;5.77;1.70;;;;;;;;;;5095532;28;20426;-86
2021/04/24 11:09:43;;;;;;;1.60;1.30;;;35.20;1.00;;;;;;5095501;28;20402;-86
2021/04/24 11:12:13;;;;;;;4.10;1.30;;;;;;;;;;5095198;28;20506;-85
2021/04/24 11:14:42;;;;;;;4.00;1.20;;;;;;;;;;5095445;28;20501;-86
2021/04/24 11:17:11;;;;;;;3.60;1.50;;;;;;;;;;5094154;28;20434;-85
2021/04/24 11:19:45;;;;;;;2.50;1.57;;;;;;;;;;5093991;28;20513;-86
2021/04/24 11:22:43;;;;;;;3.00;1.60;;;;;;;;;;5094016;28;20457;-85
2021/04/24 11:25:22;;;;;;;4.30;1.10;;;;;;;;;;5083072;28;20777;-85
2021/04/24 11:28:06;;;;;;;4.00;1.50;;;28.50;1.00;;;;;;5093564;28;20506;-86
2021/04/24 11:30:47;;;;;;;5.33;1.80;;;;;;;;;;5094355;28;20952;-85
2021/04/24 11:33:44;;;;;;;3.57;1.80;;;32.80;1.00;;;;;;5095131;28;20403;-86
2021/04/24 11:36:13;;;;;;;4.23;1.47;;;;;;;;;;5093708;28;20421;-86
2021/04/24 11:39:00;;;;;;;3.60;1.43;;;;;;;;;;5093512;28;20414;-86
2021/04/24 11:41:42;;;;;;;2.40;1.53;;;37.60;1.00;;;;;;5093491;28;20463;-86
2021/04/24 11:44:26;;;;;;;3.73;1.20;;;;;;;;;;5095109;28;20555;-86
2021/04/24 11:46:53;;;;;;;5.03;1.90;;;;;;;;;;5093424;28;20419;-86
2021/04/24 11:49:26;;;;;;;4.40;1.67;;;;;;;;;;5094713;28;20410;-86
2021/04/24 11:52:00;;;;;;;4.00;1.80;;;30.20;1.00;;;;;;5094731;28;20402;-85
2021/04/24 11:54:26;;;;;;;5.03;1.77;;;;;;;;;;5094657;28;20465;-85
2021/04/24 11:56:53;;;;;;;3.57;1.47;;;;;;;;;;5093004;28;20426;-86
2021/04/24 11:59:29;;;;;;;2.93;1.30;;;;;;;;;;5093320;28;20471;-86
2021/04/24 12:02:01;;;;;;;4.90;1.80;;;;;;;;;;5094431;28;20502;-86
2021/04/24 12:04:32;;;;;;;2.40;1.40;;;;;;;;;;5094734;28;20410;-86
2021/04/24 12:07:04;;;;;;;5.43;2.00;;;34.20;1.00;;;;;;5094416;28;20493;-86
2021/04/24 12:09:30;;;;;;;6.30;1.60;;;;;;;;;;5094397;28;20422;-86
2021/04/24 12:12:00;;;;;;;3.93;2.10;;;;;;;;;;5093941;28;20394;-86
2021/04/24 12:14:28;;;;;;;2.77;1.63;;;;;;;;;;5094514;28;20465;-85
2021/04/24 12:16:54;;;;;;;2.47;1.93;;;;;;;;;;5094972;28;21132;-85
2021/04/24 12:19:29;;;;;;;4.93;1.47;;;26.10;1.00;;;;;;5093292;28;20418;-85
2021/04/24 12:22:02;;;;;;;2.63;0.97;;;;;;;;;;5094345;28;20499;-85
2021/04/24 12:24:28;;;;;;;5.67;1.90;;;24.60;1.00;;;;;;5094276;28;20412;-85
2021/04/24 12:26:53;;;;;;;3.87;1.80;;;25.20;1.00;;;;;;5093798;28;20427;-85
2021/04/24 12:29:45;;;;;;;2.40;1.97;;;28.30;1.00;;;;;;5094004;28;20172;-85
2021/04/24 12:32:16;;;;;;;5.83;2.13;;;31.30;1.00;;;;;;5093957;28;20214;-85
2021/04/24 12:34:42;;;;;;;3.97;1.40;;;31.80;1.00;;;;;;5088167;28;20619;-86
2021/04/24 12:37:10;;;;;;;5.00;1.57;;;31.00;1.00;;;;;;5093812;28;20778;-87
2021/04/24 12:39:37;;;;;;;3.77;1.80;;;29.60;1.00;;;;;;5093619;28;20441;-85
2021/04/24 12:42:05;;;;;;;3.43;2.03;;;29.30;1.00;;;;;;5093434;28;20515;-86
2021/04/24 12:44:32;;;;;;;3.43;1.60;;;31.30;1.00;;;;;;5092427;28;20434;-86
2021/04/24 12:46:58;;;;;;;3.00;1.30;;;;;;;;;;5093608;28;20822;-86
2021/04/24 12:49:24;;;;;;;4.30;1.40;;;;;;;;;;5092269;28;20759;-86
2021/04/24 12:52:00;;;;;;;8.83;2.07;;;;;;;;;;5092128;28;20418;-86
2021/04/24 12:54:26;;;;;;;3.20;1.20;;;;;;;;;;5093526;28;20564;-86
2021/04/24 12:57:08;;;;;;;4.20;1.30;;;;;;;;;;5093469;28;20758;-86
2021/04/24 12:59:34;;;;;;;2.50;1.40;;;;;;;;;;5093532;28;20410;-86
2021/04/24 13:02:00;;;;;;;4.33;1.73;;;;;;;;;;5092131;28;20417;-87
2021/04/24 13:04:26;;;;;;;4.30;1.30;;;28.20;1.00;;;;;;5092102;28;20428;-86
2021/04/24 13:06:56;;;;;;;2.30;1.90;;;26.90;1.00;;;;;;5093394;28;20502;-86
2021/04/24 13:09:34;;;;;;;2.60;1.67;;;26.60;1.00;;;;;;5093434;28;20166;-86
2021/04/24 13:12:13;;;;;;;3.40;1.43;;;27.40;1.00;;;;;;5091681;28;20558;-86
2021/04/24 13:14:45;;;;;;;5.20;2.10;;;29.10;1.00;;;;;;5093270;28;20472;-86
2021/04/24 13:17:14;;;;;;;4.47;2.03;;;29.90;1.00;;;;;;5093199;28;20406;-86